• Join FlightAware (Why Join?)
  • Login
  • US Flag 
03:09AM EDT


 

Airport Tracker/Info


-or-


 

Live Flight TrackerFlight Track Log ✈ SWA2131 ✈ 20-Apr-2013 ✈ KMCO - KBNA

Flight Track Log - Related Links

Times and Time Zones

All times are in EDT time to prevent confusion due to time zone crossing. See the SWA2131 flight status page for this flight to view local times or setup timezone preferences in your user account.

Time Position Orientation Groundspeed Altitude Reporting Facility
EDT Latitude Longitude Course Direction KTS MPH feet Rate Location/Type
08:13AM 28.4333 -81.3000 360° North 149 171 600  Level Orlando TRACON
08:14AM 28.4667 -81.3000 360° North 198 228 2,100 2,100 Climbing Orlando TRACON
08:15AM 28.5500 -81.3167 350° North 242 278 4,600 2,400 Climbing Orlando TRACON
08:16AM 28.5667 -81.3833 286° West 262 302 7,000 2,760 Climbing Orlando TRACON
08:17AM 28.5667 -81.4833 270° West 270 311 10,400 2,400 Climbing Orlando TRACON
08:19AM 28.5550 -81.6542 266° West 332 382 14,100 2,460 Climbing Jacksonville Center
08:20AM 28.5519 -81.7675 268° West 349 402 17,400 2,940 Climbing Jacksonville Center
08:21AM 28.5467 -81.8881 267° West 372 428 20,000 2,580 Climbing Jacksonville Center
08:22AM 28.5372 -82.0042 265° West 378 435 22,700 2,820 Climbing Jacksonville Center
08:23AM 28.5025 -82.1367 253° West 383 441 25,700 2,580 Climbing Jacksonville Center
08:24AM 28.4822 -82.2550 259° West 389 448 27,900 1,980 Climbing Jacksonville Center
08:25AM 28.4661 -82.3778 262° West 395 455 29,700 2,040 Climbing Jacksonville Center
08:26AM 28.5375 -82.4789 309° West 365 420 32,000 2,100 Climbing Jacksonville Center
08:27AM 28.6606 -82.5211 343° North 383 441 33,900 1,620 Climbing Jacksonville Center
08:28AM 28.7672 -82.5561 344° North 394 453 35,300 1,560 Climbing Jacksonville Center
08:29AM 28.8842 -82.6008 341° North 423 487 37,100 1,320 Climbing Jacksonville Center
08:30AM 28.9992 -82.6433 342° North 430 495 38,000 420 Climbing Jacksonville Center
08:31AM 29.1097 -82.6833 342° North 424 488 38,000  Level Jacksonville Center
08:32AM 29.2206 -82.7236 342° North 424 488 38,000 -60 Level Jacksonville Center
08:33AM 29.3311 -82.7664 341° North 424 488 37,900  Descending Jacksonville Center
08:34AM 29.4419 -82.8067 342° North 424 488 38,000  Climbing Jacksonville Center
08:35AM 29.5589 -82.8544 340° North 429 494 38,000 120 Level Jacksonville Center
08:36AM 29.6736 -82.8950 343° North 429 494 38,300 960 Climbing Jacksonville Center
08:37AM 29.7800 -82.9381 341° North 424 488 40,000 840 Climbing Jacksonville Center
08:38AM 29.8886 -82.9764 343° North 419 482 40,000  Level Jacksonville Center
08:39AM 29.9972 -83.0197 341° North 419 482 40,000  Level Jacksonville Center
08:40AM 30.1203 -83.0606 344° North 419 482 40,000  Level Jacksonville Center
08:41AM 30.2308 -83.1017 342° North 419 482 40,000  Level Jacksonville Center
08:42AM 30.3414 -83.1428 342° North 419 482 40,000  Level Jacksonville Center
08:43AM 30.4542 -83.1867 341° North 419 482 40,000  Level Jacksonville Center
08:44AM 30.5519 -83.2472 332° Northwest 414 476 40,000  Level Jacksonville Center
08:45AM 30.6500 -83.3175 328° Northwest 409 471 40,000  Level Jacksonville Center
08:46AM 30.7478 -83.3881 328° Northwest 409 471 40,000  Level Jacksonville Center
08:47AM 30.8414 -83.4586 327° Northwest 409 471 40,000  Level Jacksonville Center
08:48AM 30.9414 -83.5319 328° Northwest 414 476 40,000  Level Jacksonville Center
08:49AM 31.0392 -83.6031 328° Northwest 414 476 40,000  Level Jacksonville Center
08:50AM 31.1389 -83.6767 328° Northwest 414 476 40,000  Level Jacksonville Center
08:51AM 31.2386 -83.7528 327° Northwest 414 476 40,000  Level Jacksonville Center
08:52AM 31.3406 -83.8242 329° Northwest 414 476 40,000  Level Jacksonville Center
08:53AM 31.4358 -83.8983 326° Northwest 414 476 40,000  Level Jacksonville Center
08:55AM 31.7006 -84.0047 341° North 436 502 40,000  Level Atlanta Center
08:56AM 31.8281 -84.0292 351° North 453 521 40,000  Level Atlanta Center
08:57AM 31.9658 -84.0583 350° North 453 521 40,000  Level Atlanta Center
08:58AM 32.0931 -84.0878 349° North 458 527 40,000  Level Atlanta Center
08:59AM 32.2203 -84.1150 350° North 458 527 40,000  Level Atlanta Center
09:00AM 32.3456 -84.1422 350° North 458 527 40,000  Level Atlanta Center
09:01AM 32.4750 -84.1719 349° North 463 533 40,000  Level Atlanta Center
09:02AM 32.6044 -84.2017 349° North 469 540 40,000  Level Atlanta Center
09:03AM 32.7317 -84.2339 348° North 469 540 40,000  Level Atlanta Center
09:04AM 32.8444 -84.2564 350° North 463 533 40,000  Level Atlanta Center
09:05AM 32.9758 -84.2889 348° North 475 547 40,000  Level Atlanta Center
09:06AM 33.1178 -84.3192 350° North 475 547 40,000  Level Atlanta Center
09:07AM 33.2511 -84.3494 349° North 470 541 40,000  Level Atlanta Center
09:08AM 33.3783 -84.3822 348° North 470 541 40,000  Level Atlanta Center
09:09AM 33.5078 -84.4100 350° North 470 541 40,000  Level Atlanta Center
09:10AM 33.6225 -84.4381 348° North 470 541 40,000  Level Atlanta Center
09:11AM 33.7433 -84.4883 341° North 458 527 40,000  Level Atlanta Center
09:12AM 33.8789 -84.5492 340° North 458 527 40,000  Level Atlanta Center
09:13AM 33.9997 -84.6025 340° North 463 533 40,000  Level Atlanta Center
09:14AM 34.1183 -84.6561 339° North 463 533 40,000  Level Atlanta Center
09:15AM 34.2411 -84.7072 341° North 465 535 40,000 -480 Level Atlanta Center
09:16AM 34.3472 -84.7811 330° Northwest 450 518 39,100 -900 Descending Atlanta Center
09:17AM 34.4511 -84.8600 328° Northwest 439 505 38,200 -960 Descending Atlanta Center
09:18AM 34.5547 -84.9417 327° Northwest 445 512 37,200 -1,020 Descending Atlanta Center
09:19AM 34.6586 -85.0186 329° Northwest 438 504 36,200 -960 Descending Atlanta Center
09:20AM 34.7581 -85.0981 327° Northwest 432 497 35,300 -960 Descending Atlanta Center
09:21AM 34.8597 -85.1753 328° Northwest 432 497 34,300 -1,080 Descending Atlanta Center
09:22AM 34.9592 -85.2553 327° Northwest 432 497 33,200 -1,440 Descending Atlanta Center
09:24AM 35.1117 -85.3717 328° Northwest 418 481 30,700 -1,740 Descending Memphis Center
09:25AM 35.1942 -85.4533 321° Northwest 399 459 28,700 -2,040 Descending Memphis Center
09:26AM 35.2622 -85.5408 314° West 375 432 26,700 -1,980 Descending Memphis Center
09:27AM 35.3300 -85.6258 314° West 362 417 24,800 -1,860 Descending Memphis Center
09:28AM 35.3936 -85.7064 314° West 345 397 23,000 -2,220 Descending Memphis Center
09:29AM 35.4572 -85.7894 313° West 340 391 20,400 -2,640 Descending Memphis Center
09:30AM 35.5228 -85.8725 314° West 340 391 17,800 -2,220 Descending Memphis Center
09:31AM 35.5864 -85.9558 313° West 340 391 16,000 -1,440 Descending Memphis Center
09:32AM 35.6389 -86.0272 312° West 322 371 15,000 -1,080 Descending Memphis Center
09:33AM 35.6981 -86.1083 312° West 305 351 13,900 -1,140 Descending Memphis Center
09:34AM 35.7525 -86.1797 313° West 299 344 12,800 -1,320 Descending Memphis Center
09:35AM 35.8047 -86.2489 313° West 286 329 11,300 -1,380 Descending Memphis Center
09:36AM 35.8569 -86.3153 314° West 279 321 10,100 -1,080 Descending Memphis Center
09:37AM 35.9006 -86.3747 312° West 260 299 9,200 -1,080 Descending Memphis Center
09:38AM 35.9442 -86.4292 315° West 233 268 8,000 -1,200 Descending Memphis Center
09:39AM 35.9878 -86.4886 312° West 228 262 6,900 -960 Descending Memphis Center
09:40AM 36.0311 -86.5431 315° West 223 257 6,100 -780 Descending Memphis Center
09:41AM 36.0778 -86.5717 334° Northwest 212 244 5,400 -900 Descending Memphis Center
09:42AM 36.1333 -86.5483 19° North 194 223 4,300 -960 Descending Memphis Center
09:43AM 36.1789 -86.5361 12° North 194 223 3,500 -1,140 Descending Memphis Center
09:44AM 36.1969 -86.5842 295° West 137 158 2,100 -840 Descending Memphis Center
09:45AM 36.1667 -86.6500 240° Southwest 141 162 1,300 -540 Descending Nashville TRACON
09:47AM 36.1167 -86.6667 225° Southwest  Level FlightAware Approximate
09:54AM 36.1245 -86.6782 225° Southwest  Level Estimated
09:55AM 36.1245 -86.6782 225° Southwest  Level Estimated
09:56AM 36.1245 -86.6782 225° Southwest  Level Estimated
09:57AM 36.1245 -86.6782 225° Southwest  Level Estimated
09:58AM 36.1245 -86.6782 225° Southwest  Level Estimated
09:59AM 36.1245 -86.6782 225° Southwest  Level Estimated
10:00AM 36.1245 -86.6782 225° Southwest  Level Estimated
10:01AM 36.1245 -86.6782 225° Southwest  Level Estimated
10:02AM 36.1245 -86.6782 225° Southwest  Level Estimated